Terminal Aerodrome Forecast
Issued by NWS

Home | Current Version | Previous Version | Graphics & Text | Print | Product List | Glossary On
Versions: 1 2 3 4 5 6 7 8 9 10 11 12 13 14 15 16 17 18 19 20 21 22 23 24 25 26 27 28 29 30 31 32 33 34 35 36 37 38 39 40 41 42 43 44 45 46 47 48 49 50
000
FTUS43 KLOT 151742
TAFGYY
TAF
KGYY 151742Z 1518/1618 21007KT 4SM -SN OVC018
     FM152000 27012G22KT 5SM -SN BKN012 OVC020
     FM160000 27012G22KT P6SM SCT015 BKN025
     FM160700 29012G17KT 6SM -SN BKN025 PROB30 1608/1612 2SM -SHSN
     FM161700 29008KT 6SM -SHSN OVC020=

USA.gov is the U.S. government's official web portal to all federal, state and local government web resources and services.